createdAt,value
2019-02-08T00:04:11.681Z,20.77
2019-02-08T00:09:14.983Z,14.83
2019-02-08T00:14:18.267Z,13.50
2019-02-08T00:19:21.554Z,15.00
2019-02-08T00:24:24.852Z,13.57
2019-02-08T00:29:28.182Z,11.00
2019-02-08T00:34:31.536Z,14.90
2019-02-08T00:39:34.805Z,16.07
2019-02-08T00:44:38.123Z,14.47
2019-02-08T00:49:41.397Z,14.10
2019-02-08T00:54:44.999Z,13.60
2019-02-08T00:59:48.299Z,14.90
2019-02-08T01:04:51.669Z,21.63
2019-02-08T01:09:54.952Z,15.57
2019-02-08T01:14:58.312Z,14.17
2019-02-08T01:20:01.610Z,15.30
2019-02-08T01:25:08.050Z,13.30
2019-02-08T01:30:14.436Z,15.43
2019-02-08T01:35:18.974Z,18.13
2019-02-08T01:40:27.505Z,16.27
2019-02-08T01:45:32.373Z,16.80
2019-02-08T01:50:35.667Z,12.50
2019-02-08T01:55:38.965Z,14.50
2019-02-08T02:00:43.491Z,15.47
2019-02-08T02:05:46.785Z,12.93
2019-02-08T02:10:50.075Z,15.03
2019-02-08T02:15:53.363Z,14.00
2019-02-08T02:20:56.629Z,15.23
2019-02-08T02:25:59.929Z,16.50
2019-02-08T02:31:03.199Z,15.33
2019-02-08T02:36:06.501Z,28.90
2019-02-08T02:41:09.791Z,11.93
2019-02-08T02:46:13.134Z,10.73
2019-02-08T02:51:16.418Z,9.33
2019-02-08T02:56:19.704Z,13.13
2019-02-08T03:01:23.011Z,11.93
2019-02-08T03:06:26.364Z,9.73
2019-02-08T03:11:29.657Z,16.63
2019-02-08T03:16:32.982Z,13.50
2019-02-08T03:21:36.269Z,8.77
2019-02-08T03:26:39.560Z,11.00
2019-02-08T03:31:42.866Z,11.60
2019-02-08T03:36:46.161Z,11.80
2019-02-08T03:41:49.420Z,9.83
2019-02-08T03:46:52.828Z,9.20
2019-02-08T03:51:56.134Z,10.30
2019-02-08T03:56:59.474Z,9.97
2019-02-08T04:02:02.748Z,11.63
2019-02-08T04:07:06.047Z,11.33
2019-02-08T04:12:09.345Z,13.50
2019-02-08T04:17:12.645Z,11.83
2019-02-08T04:22:16.002Z,10.30
2019-02-08T04:27:19.321Z,13.40
2019-02-08T04:32:22.743Z,11.17
2019-02-08T04:37:26.039Z,7.60
2019-02-08T04:42:29.342Z,12.47
2019-02-08T04:47:32.646Z,9.30
2019-02-08T04:52:35.911Z,8.40
2019-02-08T04:57:39.602Z,8.83
2019-02-08T05:02:42.879Z,7.53
2019-02-08T05:07:46.163Z,7.70
2019-02-08T05:12:49.727Z,10.23
2019-02-08T05:17:53.019Z,8.60
2019-02-08T05:22:56.303Z,9.90
2019-02-08T05:27:59.601Z,6.37
2019-02-08T05:33:02.862Z,9.87
2019-02-08T05:38:06.150Z,11.27
2019-02-08T05:43:09.442Z,13.37
2019-02-08T05:48:12.739Z,11.33
2019-02-08T05:53:16.022Z,20.43
2019-02-08T05:58:19.332Z,7.80
2019-02-08T06:03:22.638Z,14.10
2019-02-08T06:08:25.899Z,11.40
2019-02-08T06:13:29.189Z,13.20
2019-02-08T06:18:32.551Z,10.43
2019-02-08T06:23:35.891Z,19.20
2019-02-08T06:28:39.216Z,16.57
2019-02-08T06:33:42.468Z,14.67
2019-02-08T06:38:45.827Z,13.87
2019-02-08T06:43:49.111Z,12.03
2019-02-08T06:48:52.390Z,17.63
2019-02-08T06:53:55.701Z,14.53
2019-02-08T06:59:00.650Z,16.37
2019-02-08T07:04:05.741Z,12.27
2019-02-08T07:09:10.919Z,16.30
2019-02-08T07:14:15.879Z,13.83
2019-02-08T07:19:23.604Z,9.23
2019-02-08T07:24:37.538Z,9.27
2019-02-08T07:35:18.624Z,12.07
2019-02-08T07:40:35.265Z,10.33
2019-02-08T07:45:48.703Z,9.60
2019-02-08T07:50:53.627Z,7.10
2019-02-08T07:56:01.440Z,13.57
2019-02-08T08:01:25.533Z,11.73
2019-02-08T08:06:39.161Z,10.00
2019-02-08T08:12:00.128Z,16.07
2019-02-08T08:17:11.016Z,10.37
2019-02-08T08:22:24.887Z,10.40
2019-02-08T08:27:29.816Z,13.10
2019-02-08T08:32:35.120Z,19.30
2019-02-08T08:37:56.715Z,8.27
2019-02-08T08:43:03.246Z,11.63
2019-02-08T08:48:30.698Z,9.63
2019-02-08T08:53:53.792Z,9.40
2019-02-08T09:04:39.148Z,9.40
2019-02-08T09:09:45.707Z,9.93
2019-02-08T09:15:27.126Z,9.77
2019-02-08T09:20:45.205Z,8.80
2019-02-08T09:26:31.423Z,11.73
2019-02-08T09:32:05.301Z,11.00
2019-02-08T09:37:31.234Z,9.07
2019-02-08T09:42:49.716Z,10.77
2019-02-08T09:47:58.897Z,9.73
2019-02-08T09:53:26.205Z,10.57
2019-02-08T09:59:01.294Z,8.80
2019-02-08T10:04:19.888Z,10.97
2019-02-08T10:09:45.731Z,6.93
2019-02-08T10:15:27.216Z,12.53
2019-02-08T10:20:33.751Z,8.97
2019-02-08T10:26:07.120Z,8.57
2019-02-08T10:31:45.551Z,10.93
2019-02-08T10:37:16.460Z,7.03
2019-02-08T10:42:39.295Z,12.63
2019-02-08T10:47:51.651Z,7.80
2019-02-08T10:53:14.717Z,12.70
2019-02-08T10:58:36.476Z,13.17
2019-02-08T11:03:59.467Z,9.43
2019-02-08T11:09:29.569Z,11.80
2019-02-08T11:14:51.195Z,10.20
2019-02-08T11:19:57.281Z,7.97
2019-02-08T11:25:00.638Z,6.50
2019-02-08T11:30:10.168Z,6.63
2019-02-08T11:35:14.109Z,8.23
2019-02-08T11:40:20.664Z,6.40
2019-02-08T11:45:23.970Z,12.93
2019-02-08T11:50:27.252Z,8.53
2019-02-08T11:55:30.526Z,8.43
2019-02-08T12:00:35.445Z,8.40
2019-02-08T12:05:38.726Z,6.90
2019-02-08T12:10:42.041Z,6.33
2019-02-08T12:16:39.987Z,6.57
2019-02-08T12:21:43.303Z,9.77
2019-02-08T12:26:46.669Z,11.90
2019-02-08T12:31:50.003Z,7.03
2019-02-08T12:36:53.334Z,7.77
2019-02-08T12:41:56.667Z,8.67
2019-02-08T12:47:00.014Z,7.37
2019-02-08T12:52:03.415Z,7.60
2019-02-08T12:57:06.747Z,8.20
2019-02-08T13:02:10.979Z,8.70
2019-02-08T13:07:14.314Z,9.27
2019-02-08T13:12:17.641Z,8.00
2019-02-08T13:17:21.100Z,11.30
2019-02-08T13:22:24.427Z,12.27
2019-02-08T13:27:27.755Z,9.60
2019-02-08T13:32:31.082Z,9.97
2019-02-08T13:37:34.401Z,8.33
2019-02-08T13:42:37.767Z,6.30
2019-02-08T13:47:41.044Z,9.43
2019-02-08T13:52:44.399Z,8.00
2019-02-08T13:57:47.717Z,8.07
2019-02-08T14:02:51.015Z,4.93
2019-02-08T14:07:54.309Z,6.03
2019-02-08T14:12:57.595Z,5.43
2019-02-08T14:18:00.884Z,7.10
2019-02-08T14:23:04.174Z,6.47
2019-02-08T14:28:07.444Z,6.40
2019-02-08T14:33:10.736Z,10.53
2019-02-08T14:38:17.299Z,6.40
2019-02-08T14:43:20.623Z,7.53
2019-02-08T14:48:23.009Z,6.80
2019-02-08T14:53:27.730Z,7.13
2019-02-08T14:58:31.166Z,5.20
2019-02-08T15:03:34.445Z,5.47
2019-02-08T15:08:37.729Z,6.10
2019-02-08T15:13:41.013Z,8.10
2019-02-08T15:18:44.300Z,6.60
2019-02-08T15:23:47.567Z,5.47
2019-02-08T15:28:50.844Z,5.53
2019-02-08T15:33:54.120Z,6.30
2019-02-08T15:38:57.417Z,9.63
2019-02-08T15:44:00.716Z,8.97
2019-02-08T15:49:04.077Z,6.60
2019-02-08T15:54:07.398Z,5.80
2019-02-08T15:59:10.708Z,13.70
2019-02-08T16:04:13.995Z,5.83
2019-02-08T16:09:17.263Z,5.87
2019-02-08T16:14:20.557Z,10.13
2019-02-08T16:19:23.843Z,7.73
2019-02-08T16:24:27.135Z,5.33
2019-02-08T16:29:30.429Z,8.73
2019-02-08T16:34:34.268Z,7.00
2019-02-08T16:39:37.552Z,9.57
2019-02-08T16:44:40.842Z,8.33
2019-02-08T16:49:44.130Z,8.27
2019-02-08T16:54:47.552Z,8.20
2019-02-08T16:59:50.891Z,11.13
2019-02-08T17:04:54.291Z,6.97
2019-02-08T17:09:57.678Z,5.30
2019-02-08T17:15:01.286Z,8.43
2019-02-08T17:20:07.812Z,6.30
2019-02-08T17:25:11.137Z,8.80
2019-02-08T17:30:41.121Z,8.47
2019-02-08T17:35:44.406Z,6.63
2019-02-08T17:40:49.132Z,6.67
2019-02-08T17:45:52.427Z,8.43
2019-02-08T17:50:55.696Z,8.30
2019-02-08T17:55:58.981Z,6.03
2019-02-08T18:01:03.738Z,6.80
2019-02-08T18:06:07.066Z,10.00
2019-02-08T18:11:11.325Z,6.10
2019-02-08T18:16:14.612Z,7.97
2019-02-08T18:21:17.939Z,8.00
2019-02-08T18:26:21.241Z,10.70
2019-02-08T18:31:24.597Z,16.30
2019-02-08T18:36:27.882Z,16.87
2019-02-08T18:41:31.175Z,12.83
2019-02-08T18:46:34.565Z,23.93
2019-02-08T18:51:37.862Z,14.20
2019-02-08T18:56:41.135Z,12.80
2019-02-08T19:01:44.429Z,19.17
2019-02-08T19:06:47.698Z,21.13
2019-02-08T19:11:50.994Z,17.37
2019-02-08T19:16:54.283Z,18.03
2019-02-08T19:21:57.562Z,17.17
2019-02-08T19:27:00.922Z,12.10
2019-02-08T19:32:04.268Z,20.13
2019-02-08T19:37:07.573Z,15.00
2019-02-08T19:42:10.866Z,18.20
2019-02-08T19:47:14.162Z,332.97
2019-02-08T19:52:17.506Z,540.50
2019-02-08T19:57:20.807Z,535.47
2019-02-08T20:02:24.117Z,489.50
2019-02-08T20:07:27.430Z,485.70
2019-02-08T20:12:30.741Z,447.63
2019-02-08T20:17:34.048Z,473.13
2019-02-08T20:22:37.395Z,470.63
2019-02-08T20:27:40.772Z,412.67
2019-02-08T20:32:44.089Z,451.03
2019-02-08T20:37:47.629Z,376.10
2019-02-08T20:42:50.926Z,358.23
2019-02-08T20:47:54.351Z,311.87
2019-02-08T20:52:57.708Z,389.80
2019-02-08T20:58:01.050Z,337.90
2019-02-08T21:03:06.847Z,333.57
2019-02-08T21:08:11.433Z,345.33
2019-02-08T21:13:14.768Z,311.13
2019-02-08T21:18:18.140Z,306.43
2019-02-08T21:23:23.098Z,297.87
2019-02-08T21:28:26.485Z,279.20
2019-02-08T21:33:29.743Z,266.00
2019-02-08T21:38:33.052Z,277.20
2019-02-08T21:43:36.366Z,252.27
2019-02-08T21:48:39.669Z,248.40
2019-02-08T21:53:43.013Z,263.27
2019-02-08T21:58:46.327Z,246.67
2019-02-08T22:03:49.624Z,260.20
2019-02-08T22:08:52.938Z,220.70
2019-02-08T22:13:56.368Z,207.03
2019-02-08T22:18:59.667Z,223.97
2019-02-08T22:24:03.033Z,177.80
2019-02-08T22:29:13.722Z,212.27
2019-02-08T22:34:11.348Z,189.03
2019-02-08T22:39:14.655Z,185.13
2019-02-08T22:44:17.931Z,181.90
2019-02-08T22:49:21.227Z,175.17
2019-02-08T22:54:24.532Z,199.27
2019-02-08T22:59:27.833Z,192.07
2019-02-08T23:04:31.140Z,176.33
2019-02-08T23:09:34.436Z,169.30
2019-02-08T23:14:37.735Z,153.47
2019-02-08T23:19:41.032Z,150.10
2019-02-08T23:24:44.336Z,128.67
2019-02-08T23:29:47.643Z,136.73
2019-02-08T23:34:50.923Z,136.43
2019-02-08T23:39:54.226Z,130.13
2019-02-08T23:44:57.521Z,127.23
2019-02-08T23:50:00.824Z,107.23
2019-02-08T23:55:05.547Z,125.10
